Terminal Aerodrome Forecast
Issued by NWS Cleveland, OH

Home | Current Version | Previous Version | Graphics & Text | Print | Product List | Glossary On
Versions: 1 2 3 4 5 6 7 8 9 10 11 12 13 14 15 16 17 18 19
000
FTUS41 KCLE 250500
TAFMFD
TAF
KMFD 250538Z 2506/2606 24015G25KT P6SM OVC012
      TEMPO 2508/2512 3SM -RASN BR
     FM251200 24015G25KT P6SM OVC015
     FM251800 22015G25KT P6SM OVC025
     FM252300 20010KT P6SM BKN025
     FM260200 20008KT P6SM SCT025=

USA.gov is the U.S. government's official web portal to all federal, state and local government web resources and services.